Time;durP1;ratioP1;P1;durP2;ratioP2;P2;SDS_P1;SDS_P2;PMS_P1;PMS_P2;Temp;Humidity;BMP_temperature;BMP_pressure;BME280_temperature;BME280_humidity;BME280_pressure;Samples;Min_cycle;Max_cycle;Signal;HPM_P1;HPM_P2
2021/09/11 00:01:45;;;;;;;7.53;5.75;;;19.20;99.90;;;;;;1977324;72;21467;-75
2021/09/11 00:04:11;;;;;;;5.83;5.25;;;19.20;99.90;;;;;;1971866;72;21047;-75
2021/09/11 00:06:37;;;;;;;6.78;5.47;;;19.20;99.90;;;;;;1969664;72;21067;-75
2021/09/11 00:09:03;;;;;;;6.85;5.10;;;19.20;99.90;;;;;;1971223;72;21063;-75
2021/09/11 00:11:30;;;;;;;8.23;5.35;;;19.10;99.90;;;;;;1970945;72;21084;-75
2021/09/11 00:13:56;;;;;;;7.10;5.55;;;19.10;99.90;;;;;;1974658;73;21020;-75
2021/09/11 00:16:22;;;;;;;6.65;5.97;;;19.00;99.90;;;;;;1967909;72;21059;-75
2021/09/11 00:18:48;;;;;;;7.55;5.47;;;19.00;99.90;;;;;;1973909;72;21063;-77
2021/09/11 00:21:14;;;;;;;6.78;5.12;;;18.90;99.90;;;;;;1970964;72;21134;-75
2021/09/11 00:23:40;;;;;;;9.55;5.03;;;18.90;99.90;;;;;;1974506;72;21116;-75
2021/09/11 00:26:06;;;;;;;6.95;5.53;;;18.90;99.90;;;;;;1977009;72;21487;-75
2021/09/11 00:28:33;;;;;;;7.45;5.20;;;18.90;99.90;;;;;;1974444;72;21560;-75
2021/09/11 00:30:59;;;;;;;7.08;5.60;;;18.90;99.90;;;;;;1970595;72;21116;-75
2021/09/11 00:33:26;;;;;;;6.22;5.45;;;18.90;99.90;;;;;;1969675;72;21054;-75
2021/09/11 00:35:52;;;;;;;7.12;5.62;;;19.00;99.90;;;;;;1974762;72;21538;-75
2021/09/11 00:38:18;;;;;;;6.35;5.30;;;18.90;99.90;;;;;;1968823;72;21436;-75
2021/09/11 00:40:44;;;;;;;6.70;5.85;;;18.80;99.90;;;;;;1979622;72;21569;-75
2021/09/11 00:43:10;;;;;;;7.95;5.60;;;18.80;99.90;;;;;;1968527;72;21462;-75
2021/09/11 00:45:36;;;;;;;5.70;5.20;;;18.80;99.90;;;;;;1985358;72;21122;-75
2021/09/11 00:48:03;;;;;;;8.88;5.83;;;18.80;99.90;;;;;;1972572;72;21030;-75
2021/09/11 00:50:29;;;;;;;6.78;5.55;;;18.80;99.90;;;;;;1975473;72;21062;-76
2021/09/11 00:52:55;;;;;;;9.65;5.67;;;18.80;99.90;;;;;;1974473;73;21142;-75
2021/09/11 00:55:21;;;;;;;6.03;5.12;;;18.80;99.90;;;;;;1974255;73;21051;-75
2021/09/11 00:57:49;;;;;;;6.67;5.97;;;18.90;99.90;;;;;;1973853;72;21059;-75
2021/09/11 01:00:15;;;;;;;7.12;5.62;;;18.90;99.90;;;;;;1974331;72;21514;-75
2021/09/11 01:02:41;;;;;;;7.50;5.40;;;18.90;99.90;;;;;;1974662;73;21508;-75
2021/09/11 01:05:07;;;;;;;12.75;5.70;;;18.80;99.90;;;;;;1974422;73;21533;-75
2021/09/11 01:07:34;;;;;;;6.67;5.10;;;18.80;99.90;;;;;;1974569;72;21064;-75
2021/09/11 01:10:00;;;;;;;6.70;5.67;;;18.80;99.90;;;;;;1974493;73;21079;-75
2021/09/11 01:12:26;;;;;;;7.90;4.95;;;18.70;99.90;;;;;;1974611;73;21080;-75
2021/09/11 01:14:52;;;;;;;6.35;5.42;;;18.70;99.90;;;;;;1963820;72;21136;-75
2021/09/11 01:17:18;;;;;;;5.60;5.15;;;18.70;99.90;;;;;;1974620;73;21084;-75
2021/09/11 01:19:44;;;;;;;6.78;4.87;;;18.70;99.90;;;;;;1974286;72;21056;-74
2021/09/11 01:22:10;;;;;;;6.30;5.40;;;18.70;99.90;;;;;;1974528;72;21111;-75
2021/09/11 01:24:36;;;;;;;6.53;5.62;;;18.70;99.90;;;;;;1971201;72;21063;-74
2021/09/11 01:27:02;;;;;;;7.50;5.17;;;18.70;99.90;;;;;;1979872;72;21544;-74
2021/09/11 01:29:29;;;;;;;5.42;5.03;;;18.70;99.90;;;;;;1984153;72;21382;-74
2021/09/11 01:31:55;;;;;;;6.67;5.37;;;18.70;99.90;;;;;;1980199;72;21541;-74
2021/09/11 01:34:21;;;;;;;5.97;5.37;;;18.70;99.90;;;;;;1978434;72;21576;-74
2021/09/11 01:36:47;;;;;;;11.30;6.03;;;18.60;99.90;;;;;;1965843;72;21544;-73
2021/09/11 01:39:13;;;;;;;5.37;4.97;;;18.60;99.90;;;;;;1974377;72;21448;-74
2021/09/11 01:41:39;;;;;;;8.75;5.28;;;18.50;99.90;;;;;;1979728;72;21463;-74
2021/09/11 01:44:05;;;;;;;8.05;4.90;;;18.60;99.90;;;;;;1978293;72;21071;-74
2021/09/11 01:46:31;;;;;;;5.72;5.20;;;18.60;99.90;;;;;;1969773;72;21055;-74
2021/09/11 01:48:58;;;;;;;6.35;5.62;;;18.70;99.90;;;;;;1968496;72;21035;-74
2021/09/11 01:51:24;;;;;;;5.92;5.05;;;18.70;99.90;;;;;;1973250;72;21096;-74
2021/09/11 01:53:50;;;;;;;5.78;4.85;;;18.80;99.90;;;;;;1978763;72;21109;-74
2021/09/11 01:56:16;;;;;;;5.97;5.37;;;18.80;99.90;;;;;;1974690;72;21039;-74
2021/09/11 01:58:42;;;;;;;9.30;4.97;;;18.80;99.90;;;;;;1977119;72;21010;-74
2021/09/11 02:01:08;;;;;;;7.85;4.92;;;18.90;99.90;;;;;;1967898;72;21057;-74
2021/09/11 02:03:34;;;;;;;5.40;4.80;;;18.90;99.90;;;;;;1976577;72;21059;-74
2021/09/11 02:06:00;;;;;;;5.12;4.47;;;18.80;99.90;;;;;;1974374;73;21157;-74
2021/09/11 02:08:27;;;;;;;5.03;4.55;;;18.80;99.90;;;;;;1970113;72;21059;-75
2021/09/11 02:10:53;;;;;;;5.47;4.37;;;18.80;99.90;;;;;;1970902;72;21149;-75
2021/09/11 02:13:19;;;;;;;4.35;4.03;;;18.80;99.90;;;;;;1978814;72;21062;-75
2021/09/11 02:15:45;;;;;;;5.17;3.90;;;18.80;99.90;;;;;;1975439;72;21056;-74
2021/09/11 02:18:11;;;;;;;4.03;3.62;;;18.90;99.90;;;;;;1979410;72;21113;-75
2021/09/11 02:20:37;;;;;;;4.80;4.30;;;18.90;99.90;;;;;;1987829;72;21589;-75
2021/09/11 02:23:03;;;;;;;4.30;3.90;;;18.90;99.90;;;;;;1976119;72;21486;-74
2021/09/11 02:25:29;;;;;;;3.87;3.55;;;18.90;99.90;;;;;;1978524;72;21540;-74
2021/09/11 02:27:56;;;;;;;4.30;3.90;;;18.90;99.90;;;;;;1971642;72;21417;-74
2021/09/11 02:30:22;;;;;;;4.85;4.10;;;18.80;99.90;;;;;;1974467;73;21541;-75
2021/09/11 02:32:48;;;;;;;4.22;3.83;;;18.80;99.90;;;;;;1972638;72;21511;-75
2021/09/11 02:35:14;;;;;;;4.92;4.28;;;18.80;99.90;;;;;;1981946;72;21538;-75
2021/09/11 02:37:40;;;;;;;5.80;4.08;;;18.80;99.90;;;;;;1977817;72;21032;-74
2021/09/11 02:40:06;;;;;;;4.22;3.83;;;18.80;99.90;;;;;;1974441;73;21007;-74
2021/09/11 02:42:32;;;;;;;7.92;4.67;;;18.80;99.90;;;;;;1970623;72;21124;-74
2021/09/11 02:44:58;;;;;;;4.40;3.58;;;18.80;99.90;;;;;;1970904;72;21058;-74
2021/09/11 02:47:25;;;;;;;4.35;3.62;;;18.80;99.90;;;;;;1975278;72;21020;-74
2021/09/11 02:49:51;;;;;;;4.25;3.87;;;18.80;99.90;;;;;;1976643;72;21160;-75
2021/09/11 02:52:17;;;;;;;5.25;4.37;;;18.80;99.90;;;;;;1974417;72;21051;-75
2021/09/11 02:54:43;;;;;;;4.95;4.22;;;18.70;99.90;;;;;;1970728;72;21127;-75
2021/09/11 02:57:10;;;;;;;4.20;3.80;;;18.70;99.90;;;;;;1980816;72;21075;-75
2021/09/11 02:59:36;;;;;;;4.75;3.90;;;18.80;99.90;;;;;;1974391;72;21063;-74
2021/09/11 03:02:02;;;;;;;6.85;4.25;;;18.80;99.90;;;;;;1974354;72;21168;-74
2021/09/11 03:04:28;;;;;;;3.85;3.47;;;18.90;99.90;;;;;;1980153;72;21051;-74
2021/09/11 03:06:54;;;;;;;4.10;3.70;;;18.90;99.90;;;;;;1967160;72;21161;-75
2021/09/11 03:09:20;;;;;;;4.12;3.72;;;18.90;99.90;;;;;;1971138;72;21156;-75
2021/09/11 03:11:46;;;;;;;4.12;3.72;;;18.90;99.90;;;;;;1974453;73;21034;-75
2021/09/11 03:14:13;;;;;;;4.20;3.72;;;18.90;99.90;;;;;;1966205;72;21125;-75
2021/09/11 03:16:39;;;;;;;4.03;3.72;;;18.80;99.90;;;;;;1980933;72;21117;-74
2021/09/11 03:19:05;;;;;;;4.60;3.75;;;18.90;99.90;;;;;;1981410;72;21109;-74
2021/09/11 03:21:31;;;;;;;8.75;3.72;;;18.90;99.90;;;;;;1966929;72;21058;-75
2021/09/11 03:23:57;;;;;;;4.22;3.83;;;18.90;99.90;;;;;;1969046;72;21145;-75
2021/09/11 03:26:23;;;;;;;4.37;3.98;;;18.90;99.90;;;;;;1968949;72;21058;-75
2021/09/11 03:28:49;;;;;;;4.30;4.00;;;18.90;99.90;;;;;;1974627;73;21154;-75
2021/09/11 03:31:15;;;;;;;4.53;4.05;;;19.00;99.90;;;;;;1970788;72;21055;-74
2021/09/11 03:33:42;;;;;;;4.40;3.70;;;19.00;99.90;;;;;;1967098;72;21129;-75
2021/09/11 03:36:08;;;;;;;5.22;3.42;;;18.90;99.90;;;;;;1971243;72;21125;-75
2021/09/11 03:38:34;;;;;;;4.40;4.00;;;18.80;99.90;;;;;;1974679;72;21145;-74
2021/09/11 03:41:00;;;;;;;4.12;3.65;;;18.90;99.90;;;;;;1973763;72;21056;-75
2021/09/11 03:43:26;;;;;;;4.97;4.42;;;18.80;99.90;;;;;;1973775;72;21067;-76
2021/09/11 03:45:52;;;;;;;6.15;4.08;;;18.80;99.90;;;;;;1973951;72;21132;-75
2021/09/11 03:48:18;;;;;;;5.08;4.37;;;18.80;99.90;;;;;;1974111;72;21040;-75
2021/09/11 03:50:44;;;;;;;3.95;3.55;;;18.80;99.90;;;;;;1974603;73;21145;-75
2021/09/11 03:53:11;;;;;;;7.45;4.05;;;18.70;99.90;;;;;;1971529;72;21136;-75
2021/09/11 03:55:37;;;;;;;7.25;4.03;;;18.90;99.90;;;;;;1973091;72;21067;-75
2021/09/11 03:58:03;;;;;;;6.05;3.77;;;18.80;99.90;;;;;;1969330;72;21035;-75
2021/09/11 04:00:29;;;;;;;4.47;4.08;;;18.90;99.90;;;;;;1966145;72;21544;-76
2021/09/11 04:02:55;;;;;;;4.37;4.00;;;18.80;99.90;;;;;;1975931;72;21467;-75
2021/09/11 04:05:21;;;;;;;5.03;4.15;;;18.80;99.90;;;;;;1971070;72;21604;-75
2021/09/11 04:07:47;;;;;;;4.17;3.77;;;18.80;99.90;;;;;;1973846;72;21440;-75
2021/09/11 04:10:13;;;;;;;4.25;3.83;;;18.80;99.90;;;;;;1966343;72;21495;-75
2021/09/11 04:12:39;;;;;;;4.17;3.65;;;18.70;99.90;;;;;;1969764;72;21474;-75
2021/09/11 04:15:06;;;;;;;4.28;3.87;;;18.80;99.90;;;;;;1968943;72;21536;-75
2021/09/11 04:17:32;;;;;;;6.83;3.90;;;18.80;99.90;;;;;;1972393;72;21090;-75
2021/09/11 04:19:58;;;;;;;4.30;3.90;;;18.70;99.90;;;;;;1967506;72;21052;-75
2021/09/11 04:22:24;;;;;;;4.60;4.20;;;18.70;99.90;;;;;;1970986;72;21120;-75
2021/09/11 04:24:50;;;;;;;4.40;3.72;;;18.70;99.90;;;;;;1977515;72;21121;-74
2021/09/11 04:27:16;;;;;;;5.22;3.40;;;18.80;99.90;;;;;;1974346;73;21028;-75
2021/09/11 04:29:42;;;;;;;3.60;3.30;;;18.70;99.90;;;;;;1969273;72;21059;-75
2021/09/11 04:32:08;;;;;;;4.15;3.65;;;18.70;99.90;;;;;;1978056;72;21121;-75
2021/09/11 04:34:35;;;;;;;3.98;3.40;;;18.70;99.90;;;;;;1978665;72;21109;-75
2021/09/11 04:37:01;;;;;;;3.75;3.45;;;18.70;99.90;;;;;;1979754;72;21012;-75
2021/09/11 04:39:27;;;;;;;4.50;3.92;;;18.60;99.90;;;;;;1981635;72;21105;-75
2021/09/11 04:41:53;;;;;;;6.17;4.08;;;18.60;99.90;;;;;;1967163;72;21181;-75
2021/09/11 04:44:19;;;;;;;3.90;3.60;;;18.50;99.90;;;;;;1979593;72;21062;-75
2021/09/11 04:46:45;;;;;;;5.85;3.80;;;18.50;99.90;;;;;;1974687;72;21076;-75
2021/09/11 04:49:11;;;;;;;4.33;3.52;;;18.60;99.90;;;;;;1974665;73;21123;-75
2021/09/11 04:51:37;;;;;;;4.78;3.80;;;18.60;99.90;;;;;;1974607;72;21207;-75
2021/09/11 04:54:04;;;;;;;6.47;4.20;;;18.60;99.90;;;;;;1977678;72;21094;-75
2021/09/11 04:56:30;;;;;;;5.30;3.70;;;18.50;99.90;;;;;;1981502;72;21105;-75
2021/09/11 04:58:56;;;;;;;5.90;4.22;;;18.60;99.90;;;;;;1976927;72;21056;-75
2021/09/11 05:01:22;;;;;;;3.30;3.08;;;18.60;99.90;;;;;;1977576;72;21176;-75
2021/09/11 05:03:48;;;;;;;4.42;3.92;;;18.50;99.90;;;;;;1963960;72;21132;-76
2021/09/11 05:06:14;;;;;;;4.45;3.72;;;18.40;99.90;;;;;;1972873;72;21060;-75
2021/09/11 05:08:40;;;;;;;4.97;4.47;;;18.40;99.90;;;;;;1975734;72;21117;-75
2021/09/11 05:11:07;;;;;;;4.22;3.62;;;18.40;99.90;;;;;;1974463;72;21136;-75
2021/09/11 05:13:33;;;;;;;3.75;3.45;;;18.40;99.90;;;;;;1970113;72;21062;-75
2021/09/11 05:16:00;;;;;;;5.12;3.75;;;18.50;99.90;;;;;;1970192;72;21059;-75
2021/09/11 05:18:26;;;;;;;8.73;3.37;;;18.40;99.90;;;;;;1982588;72;21055;-75
2021/09/11 05:20:52;;;;;;;9.30;4.00;;;18.50;99.90;;;;;;1968886;72;21213;-75
2021/09/11 05:23:18;;;;;;;4.10;3.70;;;18.50;99.90;;;;;;1972569;72;21055;-76
2021/09/11 05:25:44;;;;;;;3.67;3.30;;;18.40;99.90;;;;;;1976407;72;21035;-76
2021/09/11 05:28:10;;;;;;;3.60;3.30;;;18.40;99.90;;;;;;1969698;72;21087;-75
2021/09/11 05:30:36;;;;;;;3.37;3.08;;;18.40;99.90;;;;;;1969729;72;21054;-76
2021/09/11 05:33:02;;;;;;;3.65;3.22;;;18.30;99.90;;;;;;1978675;72;21133;-76
2021/09/11 05:35:28;;;;;;;3.67;3.37;;;18.20;99.90;;;;;;1974607;72;21083;-75
2021/09/11 05:37:55;;;;;;;3.30;3.00;;;18.20;99.90;;;;;;1977078;72;21059;-75
2021/09/11 05:40:21;;;;;;;3.12;2.83;;;18.10;99.90;;;;;;1974767;72;21262;-75
2021/09/11 05:42:47;;;;;;;8.15;2.92;;;18.10;99.90;;;;;;1979916;72;21066;-75
2021/09/11 05:45:13;;;;;;;3.10;2.85;;;18.20;99.90;;;;;;1967798;72;21040;-76
2021/09/11 05:47:39;;;;;;;3.60;3.30;;;18.30;99.90;;;;;;1977391;72;21110;-75
2021/09/11 05:50:05;;;;;;;2.45;2.35;;;18.20;99.90;;;;;;1967193;72;21531;-75
2021/09/11 05:52:31;;;;;;;3.72;3.10;;;18.20;99.90;;;;;;1970772;72;21238;-76
2021/09/11 05:54:58;;;;;;;3.55;3.25;;;18.20;99.90;;;;;;1974511;72;21059;-75
2021/09/11 05:57:24;;;;;;;4.60;3.37;;;18.10;99.90;;;;;;1974464;72;21063;-75
2021/09/11 05:59:50;;;;;;;3.47;3.17;;;18.10;99.90;;;;;;1964023;72;21108;-75
2021/09/11 06:02:16;;;;;;;3.87;3.45;;;18.10;99.90;;;;;;1970999;72;21060;-75
2021/09/11 06:04:42;;;;;;;4.85;3.72;;;18.10;99.90;;;;;;1973947;72;21107;-75
2021/09/11 06:07:08;;;;;;;3.67;3.35;;;18.10;99.90;;;;;;1970303;72;21120;-75
2021/09/11 06:09:34;;;;;;;3.77;3.20;;;18.10;99.90;;;;;;1969452;72;21070;-75
2021/09/11 06:12:01;;;;;;;10.98;4.20;;;18.20;99.90;;;;;;1984841;72;21462;-75
2021/09/11 06:14:27;;;;;;;3.92;3.27;;;18.10;99.90;;;;;;1971183;72;21482;-75
2021/09/11 06:16:53;;;;;;;3.40;3.10;;;18.10;99.90;;;;;;1971129;72;21499;-75
2021/09/11 06:19:19;;;;;;;3.83;3.50;;;18.10;99.90;;;;;;1974564;73;21499;-75
2021/09/11 06:21:45;;;;;;;5.25;3.87;;;18.10;99.90;;;;;;1974353;72;21461;-75
2021/09/11 06:24:12;;;;;;;4.30;3.90;;;18.00;99.90;;;;;;1974394;72;21066;-75
2021/09/11 06:26:38;;;;;;;6.10;4.10;;;18.00;99.90;;;;;;1974349;72;21079;-75
2021/09/11 06:29:04;;;;;;;4.12;3.72;;;18.00;99.90;;;;;;1979232;72;21121;-75
2021/09/11 06:31:30;;;;;;;5.85;4.40;;;18.00;99.90;;;;;;1968651;72;21054;-75
2021/09/11 06:33:56;;;;;;;4.35;3.77;;;17.90;99.90;;;;;;1972925;72;21039;-75
2021/09/11 06:36:22;;;;;;;4.05;3.72;;;18.00;99.90;;;;;;1987054;71;21054;-76
2021/09/11 06:38:49;;;;;;;4.97;4.35;;;18.00;99.90;;;;;;1972691;71;21106;-75
2021/09/11 06:41:15;;;;;;;6.87;4.30;;;17.90;99.90;;;;;;1987306;71;21029;-76
2021/09/11 06:43:41;;;;;;;4.65;4.10;;;18.00;99.90;;;;;;1984274;71;21042;-75
2021/09/11 06:46:07;;;;;;;5.15;3.92;;;18.00;99.90;;;;;;1979663;71;21044;-76
2021/09/11 06:48:33;;;;;;;18.92;4.58;;;17.90;99.90;;;;;;1975422;70;21123;-75
2021/09/11 06:50:59;;;;;;;3.95;3.50;;;18.00;99.90;;;;;;1971755;72;21165;-75
2021/09/11 06:53:25;;;;;;;3.87;3.58;;;18.00;99.90;;;;;;1977859;72;21513;-75
2021/09/11 06:55:51;;;;;;;4.33;3.90;;;18.10;99.90;;;;;;1969794;72;21541;-75
2021/09/11 06:58:18;;;;;;;4.80;3.80;;;18.20;99.90;;;;;;1980838;72;21480;-75
2021/09/11 07:00:44;;;;;;;3.85;3.50;;;18.20;99.90;;;;;;1976943;72;21572;-75
2021/09/11 07:03:10;;;;;;;6.10;4.08;;;18.30;99.90;;;;;;1969135;72;21450;-75
2021/09/11 07:05:36;;;;;;;4.47;4.08;;;18.20;99.90;;;;;;1978855;72;21063;-75
2021/09/11 07:08:02;;;;;;;4.10;3.77;;;18.30;99.90;;;;;;1974420;73;21043;-75
2021/09/11 07:10:28;;;;;;;5.40;4.35;;;18.40;99.90;;;;;;1974285;72;21048;-74
2021/09/11 07:12:54;;;;;;;6.28;4.55;;;18.50;99.90;;;;;;1973906;72;21059;-75
2021/09/11 07:15:21;;;;;;;4.87;4.35;;;18.60;99.90;;;;;;1971016;72;21063;-75
2021/09/11 07:17:47;;;;;;;5.85;4.45;;;18.70;99.90;;;;;;1974414;73;21105;-75
2021/09/11 07:20:13;;;;;;;4.42;4.03;;;18.70;99.90;;;;;;1967246;72;21027;-75
2021/09/11 07:22:39;;;;;;;4.62;4.22;;;18.70;99.90;;;;;;1973723;72;21059;-74
2021/09/11 07:25:05;;;;;;;6.30;4.15;;;18.90;99.90;;;;;;1974224;72;21101;-75
2021/09/11 07:27:31;;;;;;;6.90;4.40;;;19.00;99.90;;;;;;1974536;72;21070;-75
2021/09/11 07:29:58;;;;;;;4.85;4.08;;;19.00;99.90;;;;;;1973718;72;21024;-75
2021/09/11 07:32:26;;;;;;;4.30;3.90;;;19.10;99.90;;;;;;1974576;73;21040;-75
2021/09/11 07:34:52;;;;;;;4.58;4.17;;;18.80;99.90;;;;;;1969463;72;21500;-75
2021/09/11 07:37:18;;;;;;;4.80;4.05;;;18.80;99.90;;;;;;1971642;72;21464;-75
2021/09/11 07:39:44;;;;;;;3.92;3.62;;;18.90;99.90;;;;;;1974812;72;21549;-75
2021/09/11 07:42:11;;;;;;;3.83;3.52;;;19.00;99.90;;;;;;1982388;72;21129;-75
2021/09/11 07:44:37;;;;;;;4.30;3.90;;;19.00;99.90;;;;;;1974486;72;21055;-75
2021/09/11 07:47:03;;;;;;;3.95;3.55;;;19.20;99.90;;;;;;1970883;72;21094;-75
2021/09/11 07:49:29;;;;;;;3.98;3.60;;;19.20;99.90;;;;;;1972523;72;21054;-74
2021/09/11 07:51:55;;;;;;;3.70;3.37;;;19.20;99.90;;;;;;1982053;72;21057;-75
2021/09/11 07:54:21;;;;;;;3.50;3.20;;;19.50;99.90;;;;;;1974245;72;21135;-75
2021/09/11 07:56:47;;;;;;;3.58;3.12;;;19.70;99.90;;;;;;1982780;72;21043;-76
2021/09/11 07:59:13;;;;;;;3.42;3.15;;;19.90;99.90;;;;;;1985686;72;21109;-75
2021/09/11 08:01:40;;;;;;;4.03;3.05;;;19.80;99.90;;;;;;1982933;72;21063;-74
2021/09/11 08:04:06;;;;;;;3.75;2.75;;;19.70;99.90;;;;;;1971654;72;21125;-75
2021/09/11 08:06:32;;;;;;;3.67;3.12;;;19.80;99.90;;;;;;1965967;72;21113;-76
2021/09/11 08:08:58;;;;;;;3.17;2.87;;;19.80;99.90;;;;;;1968921;72;21184;-75
2021/09/11 08:11:24;;;;;;;3.72;3.33;;;20.20;99.90;;;;;;1969470;72;21034;-75
2021/09/11 08:13:50;;;;;;;3.05;2.60;;;20.10;99.90;;;;;;1973328;72;21120;-75
2021/09/11 08:16:16;;;;;;;4.45;3.05;;;20.10;99.90;;;;;;1975840;72;21109;-75
2021/09/11 08:18:42;;;;;;;5.55;3.00;;;20.00;99.90;;;;;;1973031;72;21094;-75
2021/09/11 08:21:09;;;;;;;3.00;2.80;;;19.90;99.90;;;;;;1987265;72;21050;-74
2021/09/11 08:23:35;;;;;;;2.80;2.60;;;20.20;99.90;;;;;;1978454;72;21040;-75
2021/09/11 08:26:02;;;;;;;3.70;2.83;;;20.30;99.90;;;;;;1974593;72;21063;-74
2021/09/11 08:28:28;;;;;;;2.85;2.62;;;20.80;99.90;;;;;;1974518;72;21177;-74
2021/09/11 08:30:54;;;;;;;3.37;2.77;;;21.40;99.90;;;;;;1967172;72;21131;-75
2021/09/11 08:33:20;;;;;;;2.70;2.50;;;21.40;99.90;;;;;;1982401;72;21145;-74
2021/09/11 08:35:46;;;;;;;4.15;2.40;;;21.20;99.90;;;;;;1969123;72;21504;-75
2021/09/11 08:38:13;;;;;;;2.67;2.45;;;21.30;99.90;;;;;;1972211;72;21552;-75
2021/09/11 08:40:39;;;;;;;2.87;2.52;;;21.30;99.90;;;;;;1969152;72;21058;-75
2021/09/11 08:43:05;;;;;;;4.83;2.50;;;21.10;99.90;;;;;;1971413;72;21054;-74
2021/09/11 08:45:31;;;;;;;2.40;2.20;;;21.10;99.90;;;;;;1978964;72;21036;-76
2021/09/11 08:47:57;;;;;;;2.67;2.30;;;21.00;99.90;;;;;;1981635;72;21124;-74
2021/09/11 08:50:23;;;;;;;2.58;2.37;;;20.70;99.90;;;;;;1973929;72;21110;-74
2021/09/11 08:52:50;;;;;;;2.50;2.20;;;20.60;99.90;;;;;;1974363;72;21484;-74
2021/09/11 08:55:16;;;;;;;2.50;2.30;;;20.90;99.90;;;;;;1969175;72;21494;-74
2021/09/11 08:57:42;;;;;;;2.67;2.47;;;21.20;99.90;;;;;;1985046;72;21136;-74
2021/09/11 09:00:08;;;;;;;2.47;2.12;;;21.20;99.90;;;;;;1985026;72;21031;-74
2021/09/11 09:02:34;;;;;;;2.40;2.20;;;21.30;99.90;;;;;;1979249;72;21121;-74
2021/09/11 09:05:00;;;;;;;2.00;1.90;;;21.50;99.90;;;;;;1969288;72;21061;-75
2021/09/11 09:07:26;;;;;;;3.33;2.47;;;21.80;99.90;;;;;;1982064;72;21117;-75
2021/09/11 09:09:52;;;;;;;3.30;2.40;;;21.80;99.90;;;;;;1971450;72;21021;-75
2021/09/11 09:12:18;;;;;;;3.20;2.12;;;21.90;99.90;;;;;;1977074;72;21136;-75
2021/09/11 09:14:45;;;;;;;2.15;1.92;;;22.10;99.90;;;;;;1974310;72;21051;-75
2021/09/11 09:17:12;;;;;;;2.52;2.08;;;22.30;99.90;;;;;;1973709;72;21177;-75
2021/09/11 09:19:38;;;;;;;1.90;1.65;;;22.50;99.90;;;;;;1974966;72;21484;-75
2021/09/11 09:22:05;;;;;;;2.60;2.12;;;22.40;99.90;;;;;;1974992;72;21470;-75
2021/09/11 09:24:31;;;;;;;2.90;2.17;;;22.40;99.90;;;;;;1978524;72;21059;-75
2021/09/11 09:26:57;;;;;;;2.62;2.40;;;22.30;99.90;;;;;;1991568;72;21052;-75
2021/09/11 09:29:23;;;;;;;1.85;1.75;;;22.30;99.90;;;;;;1958986;72;21061;-75
2021/09/11 09:31:49;;;;;;;2.52;2.15;;;22.70;99.90;;;;;;1976817;72;21063;-75
2021/09/11 09:34:15;;;;;;;3.33;1.98;;;22.60;99.90;;;;;;1978077;72;21059;-75
2021/09/11 09:36:41;;;;;;;2.22;2.00;;;22.40;99.90;;;;;;1976934;72;21050;-75
2021/09/11 09:39:08;;;;;;;2.80;2.10;;;22.10;99.90;;;;;;1974371;72;21052;-75
2021/09/11 09:41:34;;;;;;;2.20;2.00;;;22.20;99.90;;;;;;1974322;72;21106;-75
2021/09/11 09:44:00;;;;;;;3.87;1.70;;;22.20;99.90;;;;;;1970513;72;21064;-75
2021/09/11 09:46:26;;;;;;;2.08;1.92;;;22.20;99.90;;;;;;1976795;72;21062;-75
2021/09/11 09:48:52;;;;;;;1.90;1.67;;;22.50;99.90;;;;;;1979943;72;21067;-75
2021/09/11 09:51:18;;;;;;;2.58;1.80;;;22.60;99.90;;;;;;1960175;72;21063;-75
2021/09/11 09:53:44;;;;;;;1.75;1.65;;;22.80;99.90;;;;;;1975388;72;21071;-75
2021/09/11 09:56:10;;;;;;;4.20;2.08;;;22.70;99.90;;;;;;1973202;72;21092;-74
2021/09/11 09:58:37;;;;;;;2.05;1.80;;;22.60;99.90;;;;;;1975810;72;21120;-75
2021/09/11 10:01:03;;;;;;;2.05;1.90;;;22.60;99.90;;;;;;1981206;72;21066;-74
2021/09/11 10:03:29;;;;;;;1.67;1.52;;;22.10;99.90;;;;;;1984064;72;21122;-74
2021/09/11 10:05:55;;;;;;;2.15;1.92;;;22.10;99.90;;;;;;1973874;72;21059;-75
2021/09/11 10:08:21;;;;;;;2.22;2.02;;;22.40;99.90;;;;;;1975886;72;21137;-75
2021/09/11 10:10:47;;;;;;;1.98;1.82;;;22.50;99.90;;;;;;1984451;72;21067;-74
2021/09/11 10:13:15;;;;;;;1.60;1.50;;;22.40;99.90;;;;;;1969267;72;21576;-75
2021/09/11 10:15:41;;;;;;;1.80;1.55;;;23.00;99.90;;;;;;1974480;72;21136;-75
2021/09/11 10:18:07;;;;;;;1.52;1.42;;;23.50;99.90;;;;;;1970380;72;21027;-75
2021/09/11 10:20:33;;;;;;;3.22;2.30;;;23.60;99.90;;;;;;1983613;72;21114;-75
2021/09/11 10:23:00;;;;;;;1.67;1.57;;;24.00;99.90;;;;;;1974488;73;21112;-75
2021/09/11 10:25:26;;;;;;;1.98;1.60;;;24.10;99.90;;;;;;1975885;72;21075;-74
2021/09/11 10:27:52;;;;;;;5.12;1.55;;;24.80;99.90;;;;;;1975187;72;21137;-75
2021/09/11 10:30:18;;;;;;;1.60;1.50;;;24.90;99.90;;;;;;1971046;72;21073;-75
2021/09/11 10:32:44;;;;;;;2.80;1.87;;;24.70;99.90;;;;;;1973935;72;21486;-75
2021/09/11 10:35:10;;;;;;;3.60;1.32;;;24.20;99.90;;;;;;1974101;72;21039;-75
2021/09/11 10:37:39;;;;;;;2.08;1.70;;;24.00;99.90;;;;;;1972909;72;21027;-75
2021/09/11 10:40:05;;;;;;;2.77;1.67;;;23.80;99.90;;;;;;1970874;72;21032;-75
2021/09/11 10:42:32;;;;;;;1.60;1.50;;;23.70;99.90;;;;;;1977346;72;21152;-75
2021/09/11 10:44:58;;;;;;;2.70;1.65;;;23.90;99.90;;;;;;1970737;72;21132;-75
2021/09/11 10:47:24;;;;;;;2.60;1.60;;;23.60;99.90;;;;;;1974001;72;21080;-76
2021/09/11 10:49:50;;;;;;;2.83;1.35;;;23.30;99.90;;;;;;1974561;73;21101;-75
2021/09/11 10:52:16;;;;;;;1.30;1.20;;;23.70;99.90;;;;;;1974390;72;21519;-75
2021/09/11 10:54:42;;;;;;;1.62;1.40;;;24.20;99.90;;;;;;1974209;72;21507;-75
2021/09/11 10:57:13;;;;;;;1.40;1.30;;;24.20;99.90;;;;;;1973139;72;21432;-75
2021/09/11 10:59:36;;;;;;;12.40;1.70;;;24.90;99.90;;;;;;1971326;72;21154;-74
2021/09/11 11:02:02;;;;;;;1.65;1.55;;;25.00;99.90;;;;;;1977840;72;21120;-74
2021/09/11 11:04:29;;;;;;;2.47;1.95;;;25.00;99.90;;;;;;1974524;72;21491;-74
2021/09/11 11:06:55;;;;;;;1.57;1.42;;;25.10;99.90;;;;;;1971114;72;21133;-74
2021/09/11 11:09:21;;;;;;;1.80;1.40;;;25.50;99.90;;;;;;1969736;72;21060;-75
2021/09/11 11:11:47;;;;;;;1.72;1.42;;;25.80;99.90;;;;;;1971156;72;21032;-75
2021/09/11 11:14:13;;;;;;;2.65;1.25;;;26.10;99.90;;;;;;1975720;72;21083;-75
2021/09/11 11:16:40;;;;;;;2.02;1.40;;;25.80;99.90;;;;;;1968213;72;21067;-75
2021/09/11 11:19:06;;;;;;;3.45;2.10;;;26.50;99.90;;;;;;1972239;72;21057;-75
2021/09/11 11:21:32;;;;;;;2.45;1.30;;;27.30;99.90;;;;;;1970997;72;21137;-76
2021/09/11 11:23:58;;;;;;;2.47;1.10;;;26.60;99.90;;;;;;1978414;72;21113;-74
2021/09/11 11:26:24;;;;;;;1.45;1.27;;;25.80;99.90;;;;;;1974275;72;21106;-75
2021/09/11 11:28:50;;;;;;;1.50;1.37;;;25.30;99.90;;;;;;1974309;73;21067;-75
2021/09/11 11:31:16;;;;;;;1.50;1.00;;;24.50;99.90;;;;;;1973989;72;21063;-75
2021/09/11 11:33:42;;;;;;;1.30;0.90;;;24.30;99.90;;;;;;1974288;72;21020;-75
2021/09/11 11:36:09;;;;;;;3.83;1.30;;;24.20;99.90;;;;;;1974257;73;21113;-75
2021/09/11 11:38:35;;;;;;;1.87;1.20;;;23.90;99.90;;;;;;1974653;72;21124;-75
2021/09/11 11:41:01;;;;;;;1.65;1.27;;;23.70;99.90;;;;;;1953327;73;21059;-74
2021/09/11 11:43:27;;;;;;;1.27;1.05;;;23.40;99.90;;;;;;1970635;72;21024;-75
2021/09/11 11:45:53;;;;;;;9.83;1.90;;;23.10;99.90;;;;;;1971041;72;21540;-74
2021/09/11 11:48:20;;;;;;;8.85;3.70;;;22.90;99.90;;;;;;1968334;72;21608;-75
2021/09/11 11:50:46;;;;;;;6.00;2.70;;;22.40;99.90;;;;;;1983100;72;21459;-76
2021/09/11 11:53:12;;;;;;;7.12;2.95;;;21.30;99.90;;;;;;1974049;72;21063;-75
2021/09/11 11:55:38;;;;;;;8.78;3.45;;;20.40;99.90;;;;;;1983911;72;21121;-76
2021/09/11 11:58:04;;;;;;;8.85;3.58;;;20.20;99.90;;;;;;1985969;72;21183;-75
2021/09/11 12:00:30;;;;;;;6.40;2.70;;;19.90;99.90;;;;;;1984149;72;21059;-75
2021/09/11 12:02:58;;;;;;;3.87;1.77;;;19.70;99.90;;;;;;1970748;72;21118;-75
2021/09/11 12:05:25;;;;;;;4.83;2.40;;;19.60;99.90;;;;;;1972212;72;21071;-75
2021/09/11 12:07:52;;;;;;;6.15;2.40;;;19.50;99.90;;;;;;1985331;72;21080;-75
2021/09/11 12:10:18;;;;;;;4.25;2.37;;;19.50;99.90;;;;;;1968055;72;21036;-73
2021/09/11 12:12:44;;;;;;;9.63;2.90;;;19.60;99.90;;;;;;1970657;72;21079;-73
2021/09/11 12:15:10;;;;;;;2.72;2.17;;;19.70;99.90;;;;;;1973095;72;21120;-75
2021/09/11 12:17:36;;;;;;;2.40;2.10;;;19.80;99.90;;;;;;1972789;72;21075;-75
2021/09/11 12:20:02;;;;;;;13.62;2.52;;;19.80;99.90;;;;;;1978628;72;21055;-75
2021/09/11 12:22:28;;;;;;;5.28;2.77;;;19.80;99.90;;;;;;1974334;72;21060;-75
2021/09/11 12:24:55;;;;;;;4.95;2.95;;;19.80;99.90;;;;;;1974773;72;21070;-74
2021/09/11 12:27:21;;;;;;;3.22;2.92;;;19.60;99.90;;;;;;1991789;72;21020;-73
2021/09/11 12:29:47;;;;;;;3.20;2.30;;;19.80;99.90;;;;;;1974422;72;21109;-74
2021/09/11 12:32:13;;;;;;;4.03;2.08;;;20.10;99.90;;;;;;1975888;72;21109;-74
2021/09/11 12:34:39;;;;;;;3.15;1.90;;;20.40;99.90;;;;;;1971591;72;21116;-75
2021/09/11 12:37:05;;;;;;;7.03;2.33;;;20.60;99.90;;;;;;1979923;72;21040;-74
2021/09/11 12:39:31;;;;;;;2.30;1.65;;;20.90;99.90;;;;;;1973389;72;21067;-75